sensor_id;sensor_type;location;lat;lon;timestamp;P1;durP1;ratioP1;P2;durP2;ratioP2
11522;SDS011;40093;43.224;27.910;2023-01-31T00:01:12;35.13;;;21.57;;
11522;SDS011;40093;43.224;27.910;2023-01-31T00:03:40;35.10;;;21.67;;
11522;SDS011;40093;43.224;27.910;2023-01-31T00:06:09;34.87;;;20.57;;
11522;SDS011;40093;43.224;27.910;2023-01-31T00:08:38;32.27;;;20.20;;
11522;SDS011;40093;43.224;27.910;2023-01-31T00:11:07;28.77;;;19.53;;
11522;SDS011;40093;43.224;27.910;2023-01-31T00:13:34;30.50;;;19.37;;
11522;SDS011;40093;43.224;27.910;2023-01-31T00:16:01;31.37;;;19.30;;
11522;SDS011;40093;43.224;27.910;2023-01-31T00:18:29;30.13;;;19.47;;
11522;SDS011;40093;43.224;27.910;2023-01-31T00:20:56;29.67;;;19.10;;
11522;SDS011;40093;43.224;27.910;2023-01-31T00:23:23;28.53;;;18.23;;
11522;SDS011;40093;43.224;27.910;2023-01-31T00:25:51;31.83;;;18.90;;
11522;SDS011;40093;43.224;27.910;2023-01-31T00:28:20;30.63;;;19.40;;
11522;SDS011;40093;43.224;27.910;2023-01-31T00:30:47;30.67;;;19.67;;
11522;SDS011;40093;43.224;27.910;2023-01-31T00:33:14;32.73;;;20.83;;
11522;SDS011;40093;43.224;27.910;2023-01-31T00:35:41;30.90;;;19.37;;
11522;SDS011;40093;43.224;27.910;2023-01-31T00:38:08;38.03;;;22.63;;
11522;SDS011;40093;43.224;27.910;2023-01-31T00:40:35;38.93;;;23.87;;
11522;SDS011;40093;43.224;27.910;2023-01-31T00:43:02;37.27;;;22.77;;
11522;SDS011;40093;43.224;27.910;2023-01-31T00:45:30;35.20;;;23.57;;
11522;SDS011;40093;43.224;27.910;2023-01-31T00:47:57;39.13;;;24.23;;
11522;SDS011;40093;43.224;27.910;2023-01-31T00:50:24;37.63;;;22.53;;
11522;SDS011;40093;43.224;27.910;2023-01-31T00:52:52;43.87;;;24.73;;
11522;SDS011;40093;43.224;27.910;2023-01-31T00:55:19;42.23;;;24.97;;
11522;SDS011;40093;43.224;27.910;2023-01-31T00:57:47;43.67;;;27.20;;
11522;SDS011;40093;43.224;27.910;2023-01-31T01:00:15;41.50;;;24.37;;
11522;SDS011;40093;43.224;27.910;2023-01-31T01:02:44;37.43;;;23.37;;
11522;SDS011;40093;43.224;27.910;2023-01-31T01:05:11;41.03;;;23.97;;
11522;SDS011;40093;43.224;27.910;2023-01-31T01:07:38;42.10;;;25.20;;
11522;SDS011;40093;43.224;27.910;2023-01-31T01:10:06;51.03;;;28.40;;
11522;SDS011;40093;43.224;27.910;2023-01-31T01:12:33;49.07;;;28.50;;
11522;SDS011;40093;43.224;27.910;2023-01-31T01:15:05;45.53;;;27.13;;
11522;SDS011;40093;43.224;27.910;2023-01-31T01:17:37;37.47;;;23.93;;
11522;SDS011;40093;43.224;27.910;2023-01-31T01:20:11;33.07;;;20.93;;
11522;SDS011;40093;43.224;27.910;2023-01-31T01:22:38;34.00;;;19.90;;
11522;SDS011;40093;43.224;27.910;2023-01-31T01:25:07;28.80;;;20.03;;
11522;SDS011;40093;43.224;27.910;2023-01-31T01:27:35;34.10;;;22.57;;
11522;SDS011;40093;43.224;27.910;2023-01-31T01:30:02;33.33;;;23.07;;
11522;SDS011;40093;43.224;27.910;2023-01-31T01:32:30;31.20;;;21.23;;
11522;SDS011;40093;43.224;27.910;2023-01-31T01:34:57;29.20;;;19.10;;
11522;SDS011;40093;43.224;27.910;2023-01-31T01:37:25;27.77;;;19.40;;
11522;SDS011;40093;43.224;27.910;2023-01-31T01:39:54;33.10;;;21.73;;
11522;SDS011;40093;43.224;27.910;2023-01-31T01:42:22;28.67;;;19.97;;
11522;SDS011;40093;43.224;27.910;2023-01-31T01:44:50;29.67;;;20.13;;
11522;SDS011;40093;43.224;27.910;2023-01-31T01:50:07;26.03;;;17.50;;
11522;SDS011;40093;43.224;27.910;2023-01-31T01:52:40;27.83;;;18.20;;
11522;SDS011;40093;43.224;27.910;2023-01-31T01:55:12;25.97;;;17.33;;
11522;SDS011;40093;43.224;27.910;2023-01-31T01:57:44;25.37;;;17.37;;
11522;SDS011;40093;43.224;27.910;2023-01-31T02:00:14;28.40;;;17.57;;
11522;SDS011;40093;43.224;27.910;2023-01-31T02:02:45;25.10;;;16.40;;
11522;SDS011;40093;43.224;27.910;2023-01-31T02:05:16;26.13;;;17.63;;
11522;SDS011;40093;43.224;27.910;2023-01-31T02:07:49;26.37;;;17.60;;
11522;SDS011;40093;43.224;27.910;2023-01-31T02:10:18;26.23;;;16.97;;
11522;SDS011;40093;43.224;27.910;2023-01-31T02:12:51;25.50;;;17.13;;
11522;SDS011;40093;43.224;27.910;2023-01-31T02:15:18;28.40;;;17.73;;
11522;SDS011;40093;43.224;27.910;2023-01-31T02:17:45;24.93;;;17.23;;
11522;SDS011;40093;43.224;27.910;2023-01-31T02:20:20;25.53;;;16.80;;
11522;SDS011;40093;43.224;27.910;2023-01-31T02:23:05;29.10;;;18.57;;
11522;SDS011;40093;43.224;27.910;2023-01-31T02:26:21;26.60;;;17.87;;
11522;SDS011;40093;43.224;27.910;2023-01-31T02:32:26;27.83;;;18.07;;
11522;SDS011;40093;43.224;27.910;2023-01-31T02:35:07;28.87;;;19.93;;
11522;SDS011;40093;43.224;27.910;2023-01-31T02:37:41;33.03;;;22.10;;
11522;SDS011;40093;43.224;27.910;2023-01-31T02:40:15;30.63;;;20.70;;
11522;SDS011;40093;43.224;27.910;2023-01-31T02:42:52;32.10;;;21.83;;
11522;SDS011;40093;43.224;27.910;2023-01-31T02:45:28;37.90;;;23.70;;
11522;SDS011;40093;43.224;27.910;2023-01-31T02:48:04;33.87;;;22.97;;
11522;SDS011;40093;43.224;27.910;2023-01-31T02:50:37;36.53;;;24.30;;
11522;SDS011;40093;43.224;27.910;2023-01-31T02:53:11;32.40;;;22.97;;
11522;SDS011;40093;43.224;27.910;2023-01-31T02:58:43;32.83;;;20.83;;
11522;SDS011;40093;43.224;27.910;2023-01-31T03:01:16;25.97;;;18.03;;
11522;SDS011;40093;43.224;27.910;2023-01-31T03:03:48;28.40;;;19.73;;
11522;SDS011;40093;43.224;27.910;2023-01-31T03:09:27;30.67;;;19.47;;
11522;SDS011;40093;43.224;27.910;2023-01-31T03:12:02;32.03;;;20.83;;
11522;SDS011;40093;43.224;27.910;2023-01-31T03:14:39;33.47;;;22.57;;
11522;SDS011;40093;43.224;27.910;2023-01-31T03:17:11;34.53;;;23.77;;
11522;SDS011;40093;43.224;27.910;2023-01-31T03:20:07;33.67;;;22.17;;
11522;SDS011;40093;43.224;27.910;2023-01-31T03:22:37;31.20;;;21.87;;
11522;SDS011;40093;43.224;27.910;2023-01-31T03:25:08;33.73;;;21.90;;
11522;SDS011;40093;43.224;27.910;2023-01-31T03:27:37;30.57;;;20.13;;
11522;SDS011;40093;43.224;27.910;2023-01-31T03:30:08;29.90;;;20.37;;
11522;SDS011;40093;43.224;27.910;2023-01-31T03:36:03;39.80;;;28.30;;
11522;SDS011;40093;43.224;27.910;2023-01-31T03:38:38;34.83;;;23.67;;
11522;SDS011;40093;43.224;27.910;2023-01-31T03:41:14;31.63;;;21.67;;
11522;SDS011;40093;43.224;27.910;2023-01-31T03:43:49;31.20;;;21.70;;
11522;SDS011;40093;43.224;27.910;2023-01-31T03:46:25;31.70;;;21.30;;
11522;SDS011;40093;43.224;27.910;2023-01-31T03:48:56;32.97;;;22.53;;
11522;SDS011;40093;43.224;27.910;2023-01-31T03:51:28;33.33;;;22.10;;
11522;SDS011;40093;43.224;27.910;2023-01-31T03:54:00;41.20;;;26.37;;
11522;SDS011;40093;43.224;27.910;2023-01-31T03:56:31;39.40;;;25.57;;
11522;SDS011;40093;43.224;27.910;2023-01-31T03:59:04;39.70;;;25.43;;
11522;SDS011;40093;43.224;27.910;2023-01-31T04:01:35;41.07;;;27.03;;
11522;SDS011;40093;43.224;27.910;2023-01-31T04:04:07;43.50;;;28.07;;
11522;SDS011;40093;43.224;27.910;2023-01-31T04:06:38;45.90;;;28.90;;
11522;SDS011;40093;43.224;27.910;2023-01-31T04:09:05;44.30;;;27.73;;
11522;SDS011;40093;43.224;27.910;2023-01-31T04:11:35;42.00;;;27.10;;
11522;SDS011;40093;43.224;27.910;2023-01-31T04:14:04;39.53;;;27.13;;
11522;SDS011;40093;43.224;27.910;2023-01-31T04:16:31;40.53;;;26.57;;
11522;SDS011;40093;43.224;27.910;2023-01-31T04:18:58;40.00;;;27.17;;
11522;SDS011;40093;43.224;27.910;2023-01-31T04:21:25;44.93;;;27.57;;
11522;SDS011;40093;43.224;27.910;2023-01-31T04:23:54;54.23;;;34.27;;
11522;SDS011;40093;43.224;27.910;2023-01-31T04:26:21;45.43;;;27.50;;
11522;SDS011;40093;43.224;27.910;2023-01-31T04:28:48;40.40;;;26.20;;
11522;SDS011;40093;43.224;27.910;2023-01-31T04:31:15;45.17;;;28.33;;
11522;SDS011;40093;43.224;27.910;2023-01-31T04:33:44;45.73;;;29.50;;
11522;SDS011;40093;43.224;27.910;2023-01-31T04:36:22;44.00;;;28.40;;
11522;SDS011;40093;43.224;27.910;2023-01-31T04:38:54;45.83;;;28.87;;
11522;SDS011;40093;43.224;27.910;2023-01-31T04:41:21;41.77;;;27.00;;
11522;SDS011;40093;43.224;27.910;2023-01-31T04:43:48;39.63;;;26.60;;
11522;SDS011;40093;43.224;27.910;2023-01-31T04:46:15;43.53;;;26.50;;
11522;SDS011;40093;43.224;27.910;2023-01-31T04:48:43;37.50;;;23.83;;
11522;SDS011;40093;43.224;27.910;2023-01-31T04:51:10;39.67;;;23.90;;
11522;SDS011;40093;43.224;27.910;2023-01-31T04:53:37;40.93;;;23.87;;
11522;SDS011;40093;43.224;27.910;2023-01-31T04:56:06;38.23;;;24.10;;
11522;SDS011;40093;43.224;27.910;2023-01-31T04:58:33;39.73;;;23.83;;
11522;SDS011;40093;43.224;27.910;2023-01-31T05:01:00;42.00;;;26.83;;
11522;SDS011;40093;43.224;27.910;2023-01-31T05:03:27;39.90;;;26.80;;
11522;SDS011;40093;43.224;27.910;2023-01-31T05:05:54;45.57;;;27.57;;
11522;SDS011;40093;43.224;27.910;2023-01-31T05:08:21;47.77;;;29.43;;
11522;SDS011;40093;43.224;27.910;2023-01-31T05:10:55;51.83;;;31.73;;
11522;SDS011;40093;43.224;27.910;2023-01-31T05:13:24;45.93;;;29.27;;
11522;SDS011;40093;43.224;27.910;2023-01-31T05:15:51;48.60;;;30.17;;
11522;SDS011;40093;43.224;27.910;2023-01-31T05:18:18;46.23;;;30.10;;
11522;SDS011;40093;43.224;27.910;2023-01-31T05:20:46;47.17;;;30.63;;
11522;SDS011;40093;43.224;27.910;2023-01-31T05:23:15;44.80;;;29.60;;
11522;SDS011;40093;43.224;27.910;2023-01-31T05:25:42;45.63;;;30.97;;
11522;SDS011;40093;43.224;27.910;2023-01-31T05:28:09;53.67;;;33.60;;
11522;SDS011;40093;43.224;27.910;2023-01-31T05:30:38;58.07;;;36.83;;
11522;SDS011;40093;43.224;27.910;2023-01-31T05:33:05;58.33;;;37.60;;
11522;SDS011;40093;43.224;27.910;2023-01-31T05:35:32;63.03;;;40.53;;
11522;SDS011;40093;43.224;27.910;2023-01-31T05:38:00;57.27;;;39.70;;
11522;SDS011;40093;43.224;27.910;2023-01-31T05:40:27;58.47;;;39.23;;
11522;SDS011;40093;43.224;27.910;2023-01-31T05:42:54;61.50;;;39.73;;
11522;SDS011;40093;43.224;27.910;2023-01-31T05:45:22;62.83;;;40.07;;
11522;SDS011;40093;43.224;27.910;2023-01-31T05:47:51;61.53;;;41.50;;
11522;SDS011;40093;43.224;27.910;2023-01-31T05:50:18;63.67;;;40.10;;
11522;SDS011;40093;43.224;27.910;2023-01-31T05:52:49;65.20;;;41.07;;
11522;SDS011;40093;43.224;27.910;2023-01-31T05:55:17;57.97;;;40.27;;
11522;SDS011;40093;43.224;27.910;2023-01-31T05:57:44;61.07;;;39.53;;
11522;SDS011;40093;43.224;27.910;2023-01-31T06:00:11;58.57;;;36.83;;
11522;SDS011;40093;43.224;27.910;2023-01-31T06:02:39;56.17;;;35.07;;
11522;SDS011;40093;43.224;27.910;2023-01-31T06:05:08;53.60;;;34.60;;
11522;SDS011;40093;43.224;27.910;2023-01-31T06:07:36;52.93;;;34.63;;
11522;SDS011;40093;43.224;27.910;2023-01-31T06:10:04;51.33;;;32.60;;
11522;SDS011;40093;43.224;27.910;2023-01-31T06:12:32;50.53;;;31.80;;
11522;SDS011;40093;43.224;27.910;2023-01-31T06:14:59;52.80;;;32.07;;
11522;SDS011;40093;43.224;27.910;2023-01-31T06:17:26;46.83;;;30.63;;
11522;SDS011;40093;43.224;27.910;2023-01-31T06:19:55;50.33;;;32.27;;
11522;SDS011;40093;43.224;27.910;2023-01-31T06:22:23;55.73;;;34.10;;
11522;SDS011;40093;43.224;27.910;2023-01-31T06:24:51;50.33;;;31.40;;
11522;SDS011;40093;43.224;27.910;2023-01-31T06:27:20;56.70;;;33.10;;
11522;SDS011;40093;43.224;27.910;2023-01-31T06:29:48;54.27;;;34.20;;
11522;SDS011;40093;43.224;27.910;2023-01-31T06:32:16;55.53;;;33.97;;
11522;SDS011;40093;43.224;27.910;2023-01-31T06:34:42;56.00;;;33.97;;
11522;SDS011;40093;43.224;27.910;2023-01-31T06:37:09;54.97;;;34.87;;
11522;SDS011;40093;43.224;27.910;2023-01-31T06:39:38;57.13;;;34.67;;
11522;SDS011;40093;43.224;27.910;2023-01-31T06:42:05;57.47;;;36.00;;
11522;SDS011;40093;43.224;27.910;2023-01-31T06:44:32;61.80;;;37.63;;
11522;SDS011;40093;43.224;27.910;2023-01-31T06:46:59;56.03;;;37.23;;
11522;SDS011;40093;43.224;27.910;2023-01-31T06:49:26;57.30;;;37.17;;
11522;SDS011;40093;43.224;27.910;2023-01-31T06:51:53;61.10;;;39.10;;
11522;SDS011;40093;43.224;27.910;2023-01-31T06:54:20;58.67;;;35.93;;
11522;SDS011;40093;43.224;27.910;2023-01-31T06:56:49;52.57;;;34.37;;
11522;SDS011;40093;43.224;27.910;2023-01-31T06:59:16;51.13;;;34.13;;
11522;SDS011;40093;43.224;27.910;2023-01-31T07:01:43;58.27;;;36.33;;
11522;SDS011;40093;43.224;27.910;2023-01-31T07:04:10;70.07;;;44.20;;
11522;SDS011;40093;43.224;27.910;2023-01-31T07:06:37;55.77;;;36.30;;
11522;SDS011;40093;43.224;27.910;2023-01-31T07:09:04;54.33;;;35.53;;
11522;SDS011;40093;43.224;27.910;2023-01-31T07:11:32;55.70;;;34.73;;
11522;SDS011;40093;43.224;27.910;2023-01-31T07:14:01;64.20;;;38.50;;
11522;SDS011;40093;43.224;27.910;2023-01-31T07:16:28;54.20;;;34.23;;
11522;SDS011;40093;43.224;27.910;2023-01-31T07:18:55;56.40;;;35.30;;
11522;SDS011;40093;43.224;27.910;2023-01-31T07:21:23;56.60;;;36.43;;
11522;SDS011;40093;43.224;27.910;2023-01-31T07:23:50;62.03;;;40.17;;
11522;SDS011;40093;43.224;27.910;2023-01-31T07:26:18;53.93;;;36.30;;
11522;SDS011;40093;43.224;27.910;2023-01-31T07:28:45;49.77;;;31.10;;
11522;SDS011;40093;43.224;27.910;2023-01-31T07:31:13;47.37;;;31.27;;
11522;SDS011;40093;43.224;27.910;2023-01-31T07:33:40;42.30;;;28.10;;
11522;SDS011;40093;43.224;27.910;2023-01-31T07:36:09;46.33;;;29.43;;
11522;SDS011;40093;43.224;27.910;2023-01-31T07:38:38;47.27;;;30.60;;
11522;SDS011;40093;43.224;27.910;2023-01-31T07:41:06;44.70;;;27.27;;
11522;SDS011;40093;43.224;27.910;2023-01-31T07:43:34;44.97;;;27.30;;
11522;SDS011;40093;43.224;27.910;2023-01-31T07:46:01;43.70;;;27.03;;
11522;SDS011;40093;43.224;27.910;2023-01-31T07:48:34;43.90;;;27.77;;
11522;SDS011;40093;43.224;27.910;2023-01-31T07:51:01;44.33;;;27.07;;
11522;SDS011;40093;43.224;27.910;2023-01-31T07:53:29;44.07;;;27.43;;
11522;SDS011;40093;43.224;27.910;2023-01-31T07:56:04;42.37;;;27.40;;
11522;SDS011;40093;43.224;27.910;2023-01-31T07:58:32;47.50;;;29.87;;
11522;SDS011;40093;43.224;27.910;2023-01-31T08:01:00;44.77;;;27.57;;
11522;SDS011;40093;43.224;27.910;2023-01-31T08:03:45;45.10;;;28.97;;
11522;SDS011;40093;43.224;27.910;2023-01-31T08:06:12;44.63;;;27.90;;
11522;SDS011;40093;43.224;27.910;2023-01-31T08:08:40;42.87;;;27.20;;
11522;SDS011;40093;43.224;27.910;2023-01-31T08:11:08;45.77;;;28.77;;
11522;SDS011;40093;43.224;27.910;2023-01-31T08:13:36;45.57;;;29.90;;
11522;SDS011;40093;43.224;27.910;2023-01-31T08:16:04;38.57;;;26.03;;
11522;SDS011;40093;43.224;27.910;2023-01-31T08:18:34;41.00;;;26.67;;
11522;SDS011;40093;43.224;27.910;2023-01-31T08:21:04;41.27;;;25.33;;
11522;SDS011;40093;43.224;27.910;2023-01-31T08:23:32;38.53;;;24.30;;
11522;SDS011;40093;43.224;27.910;2023-01-31T08:26:02;39.63;;;24.57;;
11522;SDS011;40093;43.224;27.910;2023-01-31T08:28:31;40.97;;;25.70;;
11522;SDS011;40093;43.224;27.910;2023-01-31T08:30:58;45.17;;;27.67;;
11522;SDS011;40093;43.224;27.910;2023-01-31T08:33:25;42.23;;;26.90;;
11522;SDS011;40093;43.224;27.910;2023-01-31T08:35:52;42.27;;;25.87;;
11522;SDS011;40093;43.224;27.910;2023-01-31T08:38:20;46.90;;;29.80;;
11522;SDS011;40093;43.224;27.910;2023-01-31T08:40:47;49.67;;;30.03;;
11522;SDS011;40093;43.224;27.910;2023-01-31T08:43:15;46.33;;;31.20;;
11522;SDS011;40093;43.224;27.910;2023-01-31T08:45:42;43.77;;;28.53;;
11522;SDS011;40093;43.224;27.910;2023-01-31T08:48:10;39.13;;;27.00;;
11522;SDS011;40093;43.224;27.910;2023-01-31T08:50:39;38.90;;;23.70;;
11522;SDS011;40093;43.224;27.910;2023-01-31T08:53:05;33.20;;;21.67;;
11522;SDS011;40093;43.224;27.910;2023-01-31T08:55:34;30.60;;;19.33;;
11522;SDS011;40093;43.224;27.910;2023-01-31T08:58:02;27.80;;;18.23;;
11522;SDS011;40093;43.224;27.910;2023-01-31T09:00:30;52.17;;;32.27;;
11522;SDS011;40093;43.224;27.910;2023-01-31T09:02:58;38.30;;;22.33;;
11522;SDS011;40093;43.224;27.910;2023-01-31T09:05:26;34.23;;;21.27;;
11522;SDS011;40093;43.224;27.910;2023-01-31T09:07:56;30.83;;;20.43;;
11522;SDS011;40093;43.224;27.910;2023-01-31T09:10:24;29.83;;;20.47;;
11522;SDS011;40093;43.224;27.910;2023-01-31T09:12:52;31.63;;;20.30;;
11522;SDS011;40093;43.224;27.910;2023-01-31T09:15:20;27.20;;;18.00;;
11522;SDS011;40093;43.224;27.910;2023-01-31T09:17:47;28.53;;;18.23;;
11522;SDS011;40093;43.224;27.910;2023-01-31T09:20:15;29.87;;;20.33;;
11522;SDS011;40093;43.224;27.910;2023-01-31T09:22:42;28.43;;;18.70;;
11522;SDS011;40093;43.224;27.910;2023-01-31T09:25:09;26.90;;;17.67;;
11522;SDS011;40093;43.224;27.910;2023-01-31T09:27:37;27.17;;;17.80;;
11522;SDS011;40093;43.224;27.910;2023-01-31T09:30:09;25.93;;;17.33;;
11522;SDS011;40093;43.224;27.910;2023-01-31T09:32:37;23.47;;;16.50;;
11522;SDS011;40093;43.224;27.910;2023-01-31T09:35:05;25.40;;;16.20;;
11522;SDS011;40093;43.224;27.910;2023-01-31T09:37:34;24.97;;;16.60;;
11522;SDS011;40093;43.224;27.910;2023-01-31T09:40:01;24.50;;;15.87;;
11522;SDS011;40093;43.224;27.910;2023-01-31T09:42:30;24.73;;;15.73;;
11522;SDS011;40093;43.224;27.910;2023-01-31T09:45:02;23.43;;;16.67;;
11522;SDS011;40093;43.224;27.910;2023-01-31T09:47:38;24.27;;;16.33;;
11522;SDS011;40093;43.224;27.910;2023-01-31T09:50:11;26.13;;;16.77;;
11522;SDS011;40093;43.224;27.910;2023-01-31T09:52:45;25.33;;;16.50;;
11522;SDS011;40093;43.224;27.910;2023-01-31T09:55:14;24.27;;;16.30;;
11522;SDS011;40093;43.224;27.910;2023-01-31T09:57:44;25.73;;;17.13;;
11522;SDS011;40093;43.224;27.910;2023-01-31T10:00:20;24.77;;;17.03;;
11522;SDS011;40093;43.224;27.910;2023-01-31T10:02:58;26.87;;;17.17;;
11522;SDS011;40093;43.224;27.910;2023-01-31T10:05:41;25.90;;;17.33;;
11522;SDS011;40093;43.224;27.910;2023-01-31T10:08:15;25.20;;;16.73;;
11522;SDS011;40093;43.224;27.910;2023-01-31T10:10:47;30.13;;;15.67;;
11522;SDS011;40093;43.224;27.910;2023-01-31T10:13:20;24.67;;;16.00;;
11522;SDS011;40093;43.224;27.910;2023-01-31T10:15:54;27.40;;;17.23;;
11522;SDS011;40093;43.224;27.910;2023-01-31T10:18:35;24.83;;;16.67;;
11522;SDS011;40093;43.224;27.910;2023-01-31T10:21:07;35.67;;;20.67;;
11522;SDS011;40093;43.224;27.910;2023-01-31T10:23:38;26.50;;;17.53;;
11522;SDS011;40093;43.224;27.910;2023-01-31T10:26:08;38.40;;;19.63;;
11522;SDS011;40093;43.224;27.910;2023-01-31T10:28:41;29.97;;;17.60;;
11522;SDS011;40093;43.224;27.910;2023-01-31T10:31:18;25.07;;;16.17;;
11522;SDS011;40093;43.224;27.910;2023-01-31T10:33:54;31.57;;;19.20;;
11522;SDS011;40093;43.224;27.910;2023-01-31T10:36:26;65.83;;;40.13;;
11522;SDS011;40093;43.224;27.910;2023-01-31T10:38:57;40.20;;;25.20;;
11522;SDS011;40093;43.224;27.910;2023-01-31T10:41:33;22.40;;;15.30;;
11522;SDS011;40093;43.224;27.910;2023-01-31T10:44:06;23.70;;;16.27;;
11522;SDS011;40093;43.224;27.910;2023-01-31T10:46:45;22.10;;;14.07;;
11522;SDS011;40093;43.224;27.910;2023-01-31T10:49:14;21.50;;;14.60;;
11522;SDS011;40093;43.224;27.910;2023-01-31T10:51:52;29.43;;;19.17;;
11522;SDS011;40093;43.224;27.910;2023-01-31T10:54:36;20.83;;;14.03;;
11522;SDS011;40093;43.224;27.910;2023-01-31T10:57:11;27.30;;;17.07;;
11522;SDS011;40093;43.224;27.910;2023-01-31T10:59:40;24.50;;;15.77;;
11522;SDS011;40093;43.224;27.910;2023-01-31T11:02:18;23.17;;;15.10;;
11522;SDS011;40093;43.224;27.910;2023-01-31T11:04:50;24.07;;;14.93;;
11522;SDS011;40093;43.224;27.910;2023-01-31T11:07:18;27.50;;;16.97;;
11522;SDS011;40093;43.224;27.910;2023-01-31T11:09:47;29.23;;;19.53;;
11522;SDS011;40093;43.224;27.910;2023-01-31T11:12:17;23.30;;;15.27;;
11522;SDS011;40093;43.224;27.910;2023-01-31T11:14:44;26.87;;;15.13;;
11522;SDS011;40093;43.224;27.910;2023-01-31T11:17:14;22.27;;;14.73;;
11522;SDS011;40093;43.224;27.910;2023-01-31T11:19:46;25.47;;;13.87;;
11522;SDS011;40093;43.224;27.910;2023-01-31T11:22:21;21.03;;;12.73;;
11522;SDS011;40093;43.224;27.910;2023-01-31T11:24:51;23.03;;;14.03;;
11522;SDS011;40093;43.224;27.910;2023-01-31T11:27:23;17.97;;;12.73;;
11522;SDS011;40093;43.224;27.910;2023-01-31T11:29:53;18.30;;;12.00;;
11522;SDS011;40093;43.224;27.910;2023-01-31T11:32:23;17.83;;;11.97;;
11522;SDS011;40093;43.224;27.910;2023-01-31T11:34:54;18.30;;;12.07;;
11522;SDS011;40093;43.224;27.910;2023-01-31T11:37:24;22.97;;;13.30;;
11522;SDS011;40093;43.224;27.910;2023-01-31T11:39:55;15.27;;;11.17;;
11522;SDS011;40093;43.224;27.910;2023-01-31T11:42:25;21.33;;;13.17;;
11522;SDS011;40093;43.224;27.910;2023-01-31T11:44:53;20.10;;;12.13;;
11522;SDS011;40093;43.224;27.910;2023-01-31T11:47:30;19.57;;;13.80;;
11522;SDS011;40093;43.224;27.910;2023-01-31T11:49:59;21.43;;;13.50;;
11522;SDS011;40093;43.224;27.910;2023-01-31T11:52:29;20.67;;;13.37;;
11522;SDS011;40093;43.224;27.910;2023-01-31T11:54:58;36.73;;;21.67;;
11522;SDS011;40093;43.224;27.910;2023-01-31T11:57:28;21.57;;;13.83;;
11522;SDS011;40093;43.224;27.910;2023-01-31T11:59:58;21.73;;;13.63;;
11522;SDS011;40093;43.224;27.910;2023-01-31T12:02:31;18.50;;;13.57;;
11522;SDS011;40093;43.224;27.910;2023-01-31T12:05:06;24.80;;;14.17;;
11522;SDS011;40093;43.224;27.910;2023-01-31T12:07:41;20.37;;;14.03;;
11522;SDS011;40093;43.224;27.910;2023-01-31T12:10:29;20.40;;;13.13;;
11522;SDS011;40093;43.224;27.910;2023-01-31T12:13:01;20.33;;;15.50;;
11522;SDS011;40093;43.224;27.910;2023-01-31T12:15:33;23.37;;;15.03;;
11522;SDS011;40093;43.224;27.910;2023-01-31T12:18:01;19.00;;;13.23;;
11522;SDS011;40093;43.224;27.910;2023-01-31T12:20:31;23.10;;;13.57;;
11522;SDS011;40093;43.224;27.910;2023-01-31T12:39:14;18.90;;;13.37;;
11522;SDS011;40093;43.224;27.910;2023-01-31T12:41:56;20.73;;;13.20;;
11522;SDS011;40093;43.224;27.910;2023-01-31T12:44:40;22.90;;;14.17;;
11522;SDS011;40093;43.224;27.910;2023-01-31T12:47:17;20.77;;;13.77;;
11522;SDS011;40093;43.224;27.910;2023-01-31T12:50:00;18.83;;;13.00;;
11522;SDS011;40093;43.224;27.910;2023-01-31T12:52:41;19.13;;;12.33;;
11522;SDS011;40093;43.224;27.910;2023-01-31T12:55:21;22.67;;;13.63;;
11522;SDS011;40093;43.224;27.910;2023-01-31T12:57:55;16.23;;;11.37;;
11522;SDS011;40093;43.224;27.910;2023-01-31T13:00:39;18.53;;;12.27;;
11522;SDS011;40093;43.224;27.910;2023-01-31T13:03:23;20.87;;;12.67;;
11522;SDS011;40093;43.224;27.910;2023-01-31T13:06:15;18.57;;;12.37;;
11522;SDS011;40093;43.224;27.910;2023-01-31T13:08:50;24.87;;;15.70;;
11522;SDS011;40093;43.224;27.910;2023-01-31T13:11:21;27.90;;;16.47;;
11522;SDS011;40093;43.224;27.910;2023-01-31T13:13:55;16.47;;;11.23;;
11522;SDS011;40093;43.224;27.910;2023-01-31T13:16:26;26.67;;;17.50;;
11522;SDS011;40093;43.224;27.910;2023-01-31T13:18:57;15.77;;;10.83;;
11522;SDS011;40093;43.224;27.910;2023-01-31T13:21:28;13.77;;;10.57;;
11522;SDS011;40093;43.224;27.910;2023-01-31T13:24:00;13.20;;;9.83;;
11522;SDS011;40093;43.224;27.910;2023-01-31T13:26:32;17.87;;;11.87;;
11522;SDS011;40093;43.224;27.910;2023-01-31T13:29:05;16.23;;;10.27;;
11522;SDS011;40093;43.224;27.910;2023-01-31T13:31:39;14.77;;;10.77;;
11522;SDS011;40093;43.224;27.910;2023-01-31T13:34:11;12.63;;;10.03;;
11522;SDS011;40093;43.224;27.910;2023-01-31T13:36:43;15.50;;;9.87;;
11522;SDS011;40093;43.224;27.910;2023-01-31T13:39:16;13.60;;;10.40;;
11522;SDS011;40093;43.224;27.910;2023-01-31T13:41:47;13.60;;;10.13;;
11522;SDS011;40093;43.224;27.910;2023-01-31T13:44:15;18.63;;;9.90;;
11522;SDS011;40093;43.224;27.910;2023-01-31T13:46:46;14.10;;;10.70;;
11522;SDS011;40093;43.224;27.910;2023-01-31T13:49:18;17.80;;;11.77;;
11522;SDS011;40093;43.224;27.910;2023-01-31T13:51:51;16.97;;;12.40;;
11522;SDS011;40093;43.224;27.910;2023-01-31T13:54:25;17.20;;;11.20;;
11522;SDS011;40093;43.224;27.910;2023-01-31T13:56:58;21.30;;;12.80;;
11522;SDS011;40093;43.224;27.910;2023-01-31T13:59:27;13.73;;;10.13;;
11522;SDS011;40093;43.224;27.910;2023-01-31T14:01:57;16.37;;;11.83;;
11522;SDS011;40093;43.224;27.910;2023-01-31T14:04:27;17.67;;;11.77;;
11522;SDS011;40093;43.224;27.910;2023-01-31T14:06:56;20.70;;;13.27;;
11522;SDS011;40093;43.224;27.910;2023-01-31T14:09:41;18.77;;;12.60;;
11522;SDS011;40093;43.224;27.910;2023-01-31T14:15:01;18.80;;;13.10;;
11522;SDS011;40093;43.224;27.910;2023-01-31T14:17:57;13.93;;;10.47;;
11522;SDS011;40093;43.224;27.910;2023-01-31T14:20:26;18.70;;;12.20;;
11522;SDS011;40093;43.224;27.910;2023-01-31T14:29:17;13.07;;;9.83;;
11522;SDS011;40093;43.224;27.910;2023-01-31T14:31:47;14.33;;;10.27;;
11522;SDS011;40093;43.224;27.910;2023-01-31T14:34:15;16.30;;;11.83;;
11522;SDS011;40093;43.224;27.910;2023-01-31T14:36:49;19.70;;;13.03;;
11522;SDS011;40093;43.224;27.910;2023-01-31T14:39:44;17.73;;;12.20;;
11522;SDS011;40093;43.224;27.910;2023-01-31T14:42:29;19.43;;;12.97;;
11522;SDS011;40093;43.224;27.910;2023-01-31T14:45:22;17.10;;;10.80;;
11522;SDS011;40093;43.224;27.910;2023-01-31T14:48:09;18.23;;;11.20;;
11522;SDS011;40093;43.224;27.910;2023-01-31T14:51:05;17.77;;;9.83;;
11522;SDS011;40093;43.224;27.910;2023-01-31T14:53:47;15.73;;;11.47;;
11522;SDS011;40093;43.224;27.910;2023-01-31T14:56:42;15.77;;;12.33;;
11522;SDS011;40093;43.224;27.910;2023-01-31T14:59:27;15.97;;;11.23;;
11522;SDS011;40093;43.224;27.910;2023-01-31T15:01:58;16.37;;;11.03;;
11522;SDS011;40093;43.224;27.910;2023-01-31T15:04:26;19.50;;;12.80;;
11522;SDS011;40093;43.224;27.910;2023-01-31T15:06:54;12.90;;;9.97;;
11522;SDS011;40093;43.224;27.910;2023-01-31T15:09:35;15.17;;;11.17;;
11522;SDS011;40093;43.224;27.910;2023-01-31T15:12:11;13.87;;;10.80;;